ΕΜΥ, Εθνική Μετεωρολογική Υπηρεσία - Δελτία Καιρού, Προγνώσεις

ΑΕΡΟΝΑΥΤΙΛΙΑ

GREEK AIRPORTS CODES

LGTP 251300Z 10010KT 9999 FEW014 SCT025 07/05 Q1020 RMK OVC080=

EUROPEAN AIRPORTS CODES

LFPO 270730Z 02013KT 9999 SCT024 OVC036 05/01 Q1023 NOSIG=